Preflight/Weather

The current temperature at Deer Valley airport is 15°C  or 59°F

Deer Valley Metar:

KDVT 190153Z 01004KT 10SM CLR 15/M01 A3014 RMK AO2 SLP199 T01501006

Terminal Area Forecast for Phoenix:

TAF AMD KPHX 182021Z 1820/1924 VRB03KT P6SM FEW250 FM182300 27004KT P6SM FEW250 FM190500 09003KT P6SM SCT250